Time;durP1;ratioP1;P1;durP2;ratioP2;P2;SDS_P1;SDS_P2;PMS_P1;PMS_P2;Temp;Humidity;BMP_temperature;BMP_pressure;BME280_temperature;BME280_humidity;BME280_pressure;Samples;Min_cycle;Max_cycle;Signal;HPM_P1;HPM_P2
2022/11/28 00:02:23;;;;;;;49.55;27.40;;;;;;;;;;6193588;28;20050;-73
2022/11/28 00:05:24;;;;;;;57.23;28.23;;;;;;;;;;6191627;28;20030;-74
2022/11/28 00:08:24;;;;;;;59.97;27.80;;;;;;;;;;6195006;28;20046;-74
2022/11/28 00:11:24;;;;;;;46.72;23.40;;;;;;;;;;6198064;28;20145;-73
2022/11/28 00:14:24;;;;;;;45.03;20.03;;;;;;;;;;6196469;28;20026;-73
2022/11/28 00:17:24;;;;;;;46.38;22.70;;;;;;;;;;6179554;28;20014;-74
2022/11/28 00:20:25;;;;;;;51.67;21.10;;;;;;;;;;6196714;28;20030;-74
2022/11/28 00:23:25;;;;;;;41.07;17.90;;;;;;;;;;6196914;28;20014;-74
2022/11/28 00:26:29;;;;;;;54.77;26.30;;;;;;;;;;6197379;28;20049;-74
2022/11/28 00:29:30;;;;;;;42.80;22.35;;;;;;;;;;6197060;28;20073;-74
2022/11/28 00:32:30;;;;;;;43.87;21.70;;;;;;;;;;6196969;28;20434;-74
2022/11/28 00:35:30;;;;;;;43.83;20.30;;;;;;;;;;6196533;28;20061;-75
2022/11/28 00:38:30;;;;;;;42.50;19.97;;;;;;;;;;6196859;28;20518;-73
2022/11/28 00:41:32;;;;;;;46.17;20.53;;;;;;;;;;6197222;28;20018;-74
2022/11/28 00:44:33;;;;;;;54.40;23.25;;;;;;;;;;6179393;28;20030;-74
2022/11/28 00:47:33;;;;;;;71.90;27.23;;;;;;;;;;6196667;28;20125;-74
2022/11/28 00:50:33;;;;;;;56.27;24.33;;;;;;;;;;6195703;28;20022;-74
2022/11/28 00:53:33;;;;;;;48.60;21.15;;;;;;;;;;6196119;28;20023;-74
2022/11/28 00:56:35;;;;;;;45.87;21.77;;;;;;;;;;6178647;28;20120;-75
2022/11/28 00:59:35;;;;;;;67.65;33.83;;;;;;;;;;6175791;28;20014;-74
2022/11/28 01:02:35;;;;;;;50.13;23.50;;;;;;;;;;6195800;28;20076;-74
2022/11/28 01:05:42;;;;;;;63.27;27.47;;;;;;;;;;6196164;28;20042;-74
2022/11/28 01:08:42;;;;;;;62.10;24.92;;;;;;;;;;6196453;28;20030;-74
2022/11/28 01:11:43;;;;;;;43.93;23.80;;;;;;;;;;6196637;28;20019;-74
2022/11/28 01:14:43;;;;;;;51.90;21.40;;;;;;;;;;6195328;28;20451;-75
2022/11/28 01:17:44;;;;;;;52.30;24.03;;;;;;;;;;6195888;28;20014;-74
2022/11/28 01:20:44;;;;;;;42.90;21.10;;;;;;;;;;6193290;28;20022;-74
2022/11/28 01:23:44;;;;;;;43.90;20.48;;;;;;;;;;6195016;28;20018;-75
2022/11/28 01:26:44;;;;;;;47.30;23.60;;;;;;;;;;6196808;28;20022;-74
2022/11/28 01:29:45;;;;;;;50.30;23.73;;;;;;;;;;6195779;28;20426;-74
2022/11/28 01:32:45;;;;;;;41.87;22.10;;;;;;;;;;6195376;28;20002;-74
2022/11/28 01:35:55;;;;;;;43.57;22.50;;;;;;;;;;6195593;28;20438;-75
2022/11/28 01:38:55;;;;;;;41.53;20.17;;;;;;;;;;6192010;28;20020;-75
2022/11/28 01:41:55;;;;;;;36.33;17.63;;;;;;;;;;6178552;28;20018;-75
2022/11/28 01:45:10;;;;;;;32.58;15.98;;;;;;;;;;6195340;28;20073;-75
2022/11/28 01:48:14;;;;;;;31.40;14.75;;;;;;;;;;6193933;28;20025;-75
2022/11/28 01:51:14;;;;;;;32.85;16.15;;;;;;;;;;6178412;28;20592;-75
2022/11/28 01:54:15;;;;;;;33.73;15.33;;;;;;;;;;6178494;28;20033;-75
2022/11/28 01:57:18;;;;;;;40.97;20.20;;;;;;;;;;6197547;28;20046;-76
2022/11/28 02:00:19;;;;;;;47.55;22.27;;;;;;;;;;6197213;28;20390;-75
2022/11/28 02:03:32;;;;;;;48.45;25.95;;;;;;;;;;6196911;28;20022;-75
2022/11/28 02:06:33;;;;;;;42.00;21.63;;;;;;;;;;6194555;28;20045;-75
2022/11/28 02:09:33;;;;;;;52.03;24.80;;;;;;;;;;6197168;28;20453;-75
2022/11/28 02:12:33;;;;;;;47.70;25.60;;;;;;;;;;6180249;28;20022;-75
2022/11/28 02:15:52;;;;;;;48.88;22.55;;;;;;;;;;6195379;28;20026;-75
2022/11/28 02:19:11;;;;;;;50.22;23.80;;;;;;;;;;6195067;28;20057;-75
2022/11/28 02:22:12;;;;;;;47.83;23.45;;;;;;;;;;6179346;28;20041;-76
2022/11/28 02:25:16;;;;;;;40.58;21.65;;;;;;;;;;6195807;28;20026;-76
2022/11/28 02:28:37;;;;;;;49.35;21.13;;;;;;;;;;6196349;28;20049;-76
2022/11/28 02:31:56;;;;;;;42.63;18.98;;;;;;;;;;6194494;28;20046;-76
2022/11/28 02:35:25;;;;;;;30.80;16.17;;;;;;;;;;6196902;28;20026;-75
2022/11/28 02:38:34;;;;;;;35.45;17.75;;;;;;;;;;6162445;28;20118;-75
2022/11/28 02:41:37;;;;;;;33.92;16.33;;;;;;;;;;6196331;28;20029;-75
2022/11/28 02:44:46;;;;;;;28.75;15.38;;;;;;;;;;6196800;28;20026;-76
2022/11/28 02:47:53;;;;;;;28.30;14.98;;;;;;;;;;6197035;28;20022;-76
2022/11/28 02:51:16;;;;;;;27.85;15.32;;;;;;;;;;6179132;28;20052;-76
2022/11/28 02:54:17;;;;;;;27.60;15.48;;;;;;;;;;6179960;28;20513;-76
2022/11/28 02:57:17;;;;;;;30.97;17.13;;;;;;;;;;6197021;28;20018;-75
2022/11/28 03:00:26;;;;;;;28.27;15.23;;;;;;;;;;6196121;28;20010;-75
2022/11/28 03:03:52;;;;;;;29.90;13.32;;;;;;;;;;6195309;28;20049;-75
2022/11/28 03:06:58;;;;;;;31.63;16.75;;;;;;;;;;6194752;28;20495;-76
2022/11/28 03:10:04;;;;;;;31.08;15.70;;;;;;;;;;6195992;28;20041;-77
2022/11/28 03:13:22;;;;;;;32.60;16.60;;;;;;;;;;6195559;28;20133;-76
2022/11/28 03:16:30;;;;;;;28.58;15.35;;;;;;;;;;6196789;28;20030;-76
2022/11/28 03:19:33;;;;;;;30.40;15.68;;;;;;;;;;6194869;28;20022;-76
2022/11/28 03:22:44;;;;;;;32.88;17.42;;;;;;;;;;6178070;28;20105;-76
2022/11/28 03:25:50;;;;;;;35.25;18.75;;;;;;;;;;6195263;28;20010;-76
2022/11/28 03:28:56;;;;;;;37.20;17.95;;;;;;;;;;6196618;28;20072;-76
2022/11/28 03:31:58;;;;;;;37.65;19.00;;;;;;;;;;6196723;28;20375;-76
2022/11/28 03:35:01;;;;;;;36.47;17.27;;;;;;;;;;6196049;28;20414;-75
2022/11/28 03:38:05;;;;;;;38.40;19.13;;;;;;;;;;6179944;28;20046;-75
2022/11/28 03:41:13;;;;;;;35.78;17.30;;;;;;;;;;6195192;28;20160;-75
2022/11/28 03:44:15;;;;;;;36.70;19.30;;;;;;;;;;6199160;28;20026;-76
2022/11/28 03:47:16;;;;;;;33.30;17.98;;;;;;;;;;6201714;28;20022;-76
2022/11/28 03:50:22;;;;;;;34.10;19.30;;;;;;;;;;6200778;28;20023;-76
2022/11/28 03:53:25;;;;;;;37.53;19.48;;;;;;;;;;6199191;28;20081;-76
2022/11/28 03:56:26;;;;;;;34.53;17.90;;;;;;;;;;6200682;28;20390;-76
2022/11/28 03:59:34;;;;;;;34.92;16.92;;;;;;;;;;6184559;28;20015;-76
2022/11/28 04:02:41;;;;;;;31.75;17.77;;;;;;;;;;6199774;28;20042;-77
2022/11/28 04:05:47;;;;;;;32.28;16.73;;;;;;;;;;6198821;28;20036;-75
2022/11/28 04:08:51;;;;;;;40.75;21.00;;;;;;;;;;6198442;28;20558;-75
2022/11/28 04:11:55;;;;;;;42.58;22.42;;;;;;;;;;6192307;28;20045;-75
2022/11/28 04:15:08;;;;;;;41.70;20.92;;;;;;;;;;6198868;28;20394;-76
2022/11/28 04:18:15;;;;;;;45.17;21.08;;;;;;;;;;6198822;28;20060;-76
2022/11/28 04:21:21;;;;;;;38.10;20.45;;;;;;;;;;6181851;28;20405;-75
2022/11/28 04:24:24;;;;;;;27.00;15.10;;;;;;;;;;6200372;28;20026;-76
2022/11/28 04:27:30;;;;;;;33.70;16.60;;;;;;;;;;6199580;28;20033;-75
2022/11/28 04:30:31;;;;;;;29.75;14.30;;;;;;;;;;6199559;28;20109;-75
2022/11/28 04:33:34;;;;;;;33.73;16.67;;;;;;;;;;6198544;28;20038;-76
2022/11/28 04:36:36;;;;;;;36.80;18.17;;;;;;;;;;6194080;28;20053;-75
2022/11/28 04:39:37;;;;;;;37.78;17.25;;;;;;;;;;6181979;28;20029;-75
2022/11/28 04:42:43;;;;;;;32.33;17.13;;;;;;;;;;6199144;28;20050;-75
2022/11/28 04:45:45;;;;;;;36.63;18.77;;;;;;;;;;6178453;28;20406;-75
2022/11/28 04:48:45;;;;;;;28.67;17.50;;;;;;;;;;6199681;28;20700;-75
2022/11/28 04:51:51;;;;;;;31.13;16.87;;;;;;;;;;6197639;28;20137;-75
2022/11/28 04:55:09;;;;;;;34.60;16.95;;;;;;;;;;6198200;28;20030;-75
2022/11/28 04:58:15;;;;;;;34.20;15.93;;;;;;;;;;6193946;28;20471;-75
2022/11/28 05:01:18;;;;;;;30.70;15.95;;;;;;;;;;6193185;28;20026;-75
2022/11/28 05:04:18;;;;;;;35.00;18.30;;;;;;;;;;6180347;28;20041;-75
2022/11/28 05:07:19;;;;;;;34.70;18.77;;;;;;;;;;6197549;28;20038;-75
2022/11/28 05:10:19;;;;;;;33.30;19.20;;;;;;;;;;6192119;28;20034;-75
2022/11/28 05:13:19;;;;;;;35.37;18.87;;;;;;;;;;6199578;28;20057;-75
2022/11/28 05:16:20;;;;;;;37.33;19.47;;;;;;;;;;6197563;28;20026;-74
2022/11/28 05:19:20;;;;;;;38.90;22.13;;;;;;;;;;6195438;28;20010;-73
2022/11/28 05:22:20;;;;;;;47.40;21.73;;;;;;;;;;6197507;28;20027;-73
2022/11/28 05:25:21;;;;;;;39.00;20.05;;;;;;;;;;6197780;28;20545;-73
2022/11/28 05:28:21;;;;;;;39.13;20.33;;;;;;;;;;6196304;28;20800;-74
2022/11/28 05:31:21;;;;;;;43.77;22.60;;;;;;;;;;6197915;28;20410;-73
2022/11/28 05:34:21;;;;;;;43.47;21.57;;;;;;;;;;6180078;28;20120;-74
2022/11/28 05:37:21;;;;;;;34.92;19.70;;;;;;;;;;6197814;28;20410;-74
2022/11/28 05:40:22;;;;;;;49.10;23.40;;;;;;;;;;6197118;28;20023;-73
2022/11/28 05:43:22;;;;;;;47.63;24.77;;;;;;;;;;6197831;28;20010;-74
2022/11/28 05:46:22;;;;;;;40.38;21.23;;;;;;;;;;6197220;28;20593;-73
2022/11/28 05:49:24;;;;;;;40.10;20.23;;;;;;;;;;6197606;28;20045;-73
2022/11/28 05:52:24;;;;;;;37.00;20.73;;;;;;;;;;6197312;28;20093;-73
2022/11/28 05:55:24;;;;;;;38.77;19.97;;;;;;;;;;6196121;28;20497;-73
2022/11/28 05:58:25;;;;;;;53.77;23.63;;;;;;;;;;6196914;28;20015;-73
2022/11/28 06:01:26;;;;;;;102.20;40.17;;;;;;;;;;6199099;28;20014;-73
2022/11/28 06:04:27;;;;;;;126.93;59.47;;;;;;;;;;6195306;28;20023;-73
2022/11/28 06:07:27;;;;;;;79.97;45.67;;;;;;;;;;6196127;28;20046;-73
2022/11/28 06:10:27;;;;;;;89.82;44.35;;;;;;;;;;6196184;28;20034;-73
2022/11/28 06:13:28;;;;;;;68.60;34.93;;;;;;;;;;6197033;28;20022;-73
2022/11/28 06:16:29;;;;;;;64.97;32.80;;;;;;;;;;6195783;28;20023;-73
2022/11/28 06:19:29;;;;;;;60.90;29.55;;;;;;;;;;6178447;28;20528;-72
2022/11/28 06:22:29;;;;;;;58.03;30.42;;;;;;;;;;6195978;28;20027;-73
2022/11/28 06:25:29;;;;;;;54.55;27.60;;;;;;;;;;6178032;28;20014;-74
2022/11/28 06:28:29;;;;;;;58.43;27.83;;;;;;;;;;6195285;28;20026;-73
2022/11/28 06:31:30;;;;;;;57.50;26.93;;;;;;;;;;6194624;28;20089;-73
2022/11/28 06:34:31;;;;;;;59.53;28.70;;;;;;;;;;6194328;28;20022;-73
2022/11/28 06:37:31;;;;;;;89.17;40.97;;;;;;;;;;6195700;28;20522;-73
2022/11/28 06:40:31;;;;;;;75.18;41.72;;;;;;;;;;6195337;28;20257;-74
2022/11/28 06:43:32;;;;;;;58.13;31.42;;;;;;;;;;6196149;28;20018;-73
2022/11/28 06:46:32;;;;;;;51.73;28.13;;;;;;;;;;6177621;28;20042;-73
2022/11/28 06:49:32;;;;;;;48.27;25.80;;;;;;;;;;6179469;28;20529;-73
2022/11/28 06:52:32;;;;;;;41.70;21.57;;;;;;;;;;6195926;28;20022;-73
2022/11/28 06:55:33;;;;;;;43.47;24.27;;;;;;;;;;6195432;28;20022;-73
2022/11/28 06:58:33;;;;;;;51.83;24.10;;;;;;;;;;6192092;28;20081;-73
2022/11/28 07:01:33;;;;;;;59.97;27.23;;;;;;;;;;6196016;28;20022;-73
2022/11/28 07:04:34;;;;;;;62.30;33.90;;;;;;;;;;6193850;28;20050;-72
2022/11/28 07:07:34;;;;;;;62.10;30.63;;;;;;;;;;6192849;28;20046;-73
2022/11/28 07:10:35;;;;;;;51.43;28.90;;;;;;;;;;6176697;28;20026;-73
2022/11/28 07:13:35;;;;;;;57.27;31.13;;;;;;;;;;6192305;28;20482;-73
2022/11/28 07:16:35;;;;;;;62.03;27.43;;;;;;;;;;6195885;28;20117;-73
2022/11/28 07:19:36;;;;;;;44.33;21.97;;;;;;;;;;6199744;28;20006;-73
2022/11/28 07:22:36;;;;;;;56.57;27.07;;;;;;;;;;6181436;28;20018;-72
2022/11/28 07:25:36;;;;;;;50.17;27.98;;;;;;;;;;6196725;28;20084;-72
2022/11/28 07:28:36;;;;;;;57.10;30.68;;;;;;;;;;6199790;28;20034;-73
2022/11/28 07:31:36;;;;;;;56.75;30.08;;;;;;;;;;6200380;28;20114;-73
2022/11/28 07:34:37;;;;;;;42.53;25.77;;;;;;;;;;6198369;28;20109;-72
2022/11/28 07:37:37;;;;;;;58.93;30.43;;;;;;;;;;6183172;28;20125;-72
2022/11/28 07:40:37;;;;;;;66.60;36.90;;;;;;;;;;6200470;28;20577;-73
2022/11/28 07:43:38;;;;;;;60.10;35.65;;;;;;;;;;6200777;28;20109;-73
2022/11/28 07:46:38;;;;;;;56.63;31.63;;;;;;;;;;6200290;28;20081;-73
2022/11/28 07:49:38;;;;;;;61.20;30.67;;;;;;;;;;6199361;28;20113;-72
2022/11/28 07:52:39;;;;;;;86.07;40.40;;;;;;;;;;6197955;28;20026;-72
2022/11/28 07:55:39;;;;;;;129.83;65.50;;;;;;;;;;6197762;28;20479;-73
2022/11/28 07:58:40;;;;;;;91.00;49.33;;;;;;;;;;6197024;28;20478;-72
2022/11/28 08:01:40;;;;;;;58.37;33.40;;;;;;;;;;6198152;28;20030;-72
2022/11/28 08:04:40;;;;;;;58.27;34.63;;;;;;;;;;6197287;28;20026;-72
2022/11/28 08:07:40;;;;;;;57.03;28.13;;;;;;;;;;6196965;28;20069;-72
2022/11/28 08:10:40;;;;;;;50.53;23.63;;;;;;;;;;6199178;28;20025;-72
2022/11/28 08:13:41;;;;;;;46.30;24.27;;;;;;;;;;6198288;28;20014;-72
2022/11/28 08:16:43;;;;;;;44.47;24.63;;;;;;;;;;6199303;28;20030;-73
2022/11/28 08:19:43;;;;;;;44.65;25.85;;;;;;;;;;6196592;28;20029;-72
2022/11/28 08:22:44;;;;;;;54.60;25.90;;;;;;;;;;6180203;28;20042;-72
2022/11/28 08:25:44;;;;;;;47.00;24.40;;;;;;;;;;6199025;28;20026;-73
2022/11/28 08:28:44;;;;;;;42.65;24.80;;;;;;;;;;6197795;28;20046;-72
2022/11/28 08:31:44;;;;;;;49.70;25.37;;;;;;;;;;6198653;28;20022;-73
2022/11/28 08:34:45;;;;;;;44.03;24.75;;;;;;;;;;6198105;28;20050;-72
2022/11/28 08:37:45;;;;;;;45.15;25.25;;;;;;;;;;6180205;28;20030;-72
2022/11/28 08:40:45;;;;;;;48.10;26.80;;;;;;;;;;6198496;28;20530;-73
2022/11/28 08:43:46;;;;;;;48.92;27.08;;;;;;;;;;6179279;28;20360;-73
2022/11/28 08:46:46;;;;;;;49.07;26.90;;;;;;;;;;6195802;28;20038;-74
2022/11/28 08:49:46;;;;;;;49.03;26.42;;;;;;;;;;6194054;28;20022;-73
2022/11/28 08:52:46;;;;;;;45.53;26.40;;;;;;;;;;6196513;28;20486;-73
2022/11/28 08:55:46;;;;;;;39.07;18.97;;;;;;;;;;6196238;28;20093;-73
2022/11/28 08:58:47;;;;;;;46.43;24.53;;;;;;;;;;6195455;28;20034;-73
2022/11/28 09:01:47;;;;;;;47.33;25.97;;;;;;;;;;6194851;28;20054;-73
2022/11/28 09:04:47;;;;;;;49.80;23.98;;;;;;;;;;6178507;28;20061;-73
2022/11/28 09:07:47;;;;;;;44.10;24.88;;;;;;;;;;6195881;28;20077;-74
2022/11/28 09:10:47;;;;;;;37.85;22.70;;;;;;;;;;6196528;28;20018;-74
2022/11/28 09:13:48;;;;;;;37.72;24.45;;;;;;;;;;6196153;28;20039;-74
2022/11/28 09:16:49;;;;;;;39.27;19.20;;;;;;;;;;6177476;28;20078;-73
2022/11/28 09:19:49;;;;;;;32.33;17.77;;;;;;;;;;6178760;28;20479;-77
2022/11/28 09:22:49;;;;;;;34.97;20.88;;;;;;;;;;6178735;28;20434;-73
2022/11/28 09:25:49;;;;;;;40.13;16.87;;;;;;;;;;6195489;28;20046;-74
2022/11/28 09:28:50;;;;;;;31.07;16.77;;;;;;;;;;6194577;28;20080;-73
2022/11/28 09:31:50;;;;;;;35.27;16.90;;;;;;;;;;6195141;28;20042;-73
2022/11/28 09:34:50;;;;;;;33.72;18.05;;;;;;;;;;6195517;28;20022;-73
2022/11/28 09:37:51;;;;;;;30.20;16.48;;;;;;;;;;6192957;28;20261;-73
2022/11/28 09:40:51;;;;;;;54.77;24.23;;;;;;;;;;6194746;28;20088;-73
2022/11/28 09:43:53;;;;;;;44.13;19.48;;;;;;;;;;6194376;28;20061;-73
2022/11/28 09:46:55;;;;;;;137.80;69.90;;;;;;;;;;6194640;28;20490;-73
2022/11/28 09:49:57;;;;;;;38.47;20.50;;;;;;;;;;6195032;28;20129;-74
2022/11/28 09:52:57;;;;;;;;;;;;;;;;;;6196422;28;20105;-74
2022/11/28 09:55:59;;;;;;;77.82;43.78;;;;;;;;;;6194486;28;19914;-73
2022/11/28 09:59:01;;;;;;;;;;;;;;;;;;6193003;28;20136;-73
2022/11/28 10:02:11;;;;;;;61.03;36.00;;;;;;;;;;6279818;28;20395;-73
2022/11/28 10:05:18;;;;;;;35.25;21.83;;;;;;;;;;6263019;28;20083;-74
2022/11/28 10:08:19;;;;;;;50.67;24.75;;;;;;;;;;6264781;28;20100;-74
2022/11/28 10:11:44;;;;;;;31.85;18.77;;;;;;;;;;6256561;28;20036;-73
2022/11/28 10:14:56;;;;;;;31.92;19.20;;;;;;;;;;6261728;28;20156;-73
2022/11/28 10:18:15;;;;;;;31.00;16.00;;;;;;;;;;6260383;28;20028;-73
2022/11/28 10:21:25;;;;;;;35.58;20.38;;;;;;;;;;6247245;28;20052;-74
2022/11/28 10:24:43;;;;;;;30.95;18.55;;;;;;;;;;6262344;28;20021;-73
2022/11/28 10:27:44;;;;;;;30.10;17.10;;;;;;;;;;6257794;28;20022;-73
2022/11/28 10:30:46;;;;;;;35.43;18.47;;;;;;;;;;6257543;28;20024;-74
2022/11/28 10:33:46;;;;;;;;;;;;;;;;;;6264014;28;20018;-73
2022/11/28 10:36:59;;;;;;;46.35;25.20;;;;;;;;;;6263445;28;19932;-73
2022/11/28 10:40:11;;;;;;;36.75;19.23;;;;;;;;;;6262040;28;20051;-73
2022/11/28 10:43:19;;;;;;;33.38;18.40;;;;;;;;;;6261814;28;20013;-73
2022/11/28 10:46:42;;;;;;;34.55;21.98;;;;;;;;;;6260571;28;20063;-73
2022/11/28 10:50:00;;;;;;;31.90;18.65;;;;;;;;;;6261162;28;20025;-73
2022/11/28 10:53:00;;;;;;;28.38;17.02;;;;;;;;;;6261650;28;20109;-74
2022/11/28 10:56:10;;;;;;;28.27;17.27;;;;;;;;;;6261971;28;20389;-74
2022/11/28 10:59:13;;;;;;;29.38;17.23;;;;;;;;;;6253683;28;20029;-73
2022/11/28 11:02:28;;;;;;;34.13;22.17;;;;;;;;;;6262453;28;20461;-73
2022/11/28 11:05:32;;;;;;;61.25;33.85;;;;;;;;;;6261948;28;20509;-73
2022/11/28 11:08:34;;;;;;;45.92;28.17;;;;;;;;;;6264615;28;20064;-73
2022/11/28 11:11:37;;;;;;;33.95;21.77;;;;;;;;;;6258658;28;20492;-73
2022/11/28 11:14:41;;;;;;;27.38;15.63;;;;;;;;;;6246623;28;20063;-73
2022/11/28 11:17:42;;;;;;;24.17;12.98;;;;;;;;;;6244837;28;20021;-73
2022/11/28 11:20:42;;;;;;;24.43;13.27;;;;;;;;;;6246136;28;20071;-73
2022/11/28 11:23:43;;;;;;;28.30;16.20;;;;;;;;;;6249048;28;20017;-73
2022/11/28 11:26:45;;;;;;;25.03;14.07;;;;;;;;;;6246983;28;20079;-73
2022/11/28 11:29:45;;;;;;;26.90;15.82;;;;;;;;;;6236605;28;20025;-73
2022/11/28 11:32:47;;;;;;;19.93;13.03;;;;;;;;;;6242194;28;20036;-74
2022/11/28 11:35:48;;;;;;;23.70;12.93;;;;;;;;;;6240989;28;20026;-74
2022/11/28 11:38:48;;;;;;;23.50;13.33;;;;;;;;;;6243546;28;20029;-72
2022/11/28 11:42:09;;;;;;;25.47;14.03;;;;;;;;;;6243453;28;20017;-73
2022/11/28 11:45:23;;;;;;;28.17;16.85;;;;;;;;;;6241361;28;20033;-73
2022/11/28 11:48:33;;;;;;;43.75;21.77;;;;;;;;;;6238727;28;20034;-73
2022/11/28 11:51:35;;;;;;;24.00;13.63;;;;;;;;;;6245027;28;20137;-73
2022/11/28 11:54:35;;;;;;;22.02;12.77;;;;;;;;;;6247983;28;20854;-74
2022/11/28 11:57:37;;;;;;;26.33;13.63;;;;;;;;;;6243071;28;20037;-73
2022/11/28 12:00:38;;;;;;;26.65;14.40;;;;;;;;;;6239488;28;20409;-73
2022/11/28 12:03:42;;;;;;;31.15;17.17;;;;;;;;;;6247438;28;20021;-73
2022/11/28 12:06:47;;;;;;;27.63;14.13;;;;;;;;;;6246660;28;20100;-73
2022/11/28 12:09:48;;;;;;;24.83;14.05;;;;;;;;;;6243963;28;20017;-73
2022/11/28 12:12:49;;;;;;;38.22;19.25;;;;;;;;;;6244929;28;20051;-73
2022/11/28 12:16:09;;;;;;;25.33;14.60;;;;;;;;;;6240837;28;20017;-74
2022/11/28 12:19:39;;;;;;;28.75;13.48;;;;;;;;;;6244603;28;20014;-73
2022/11/28 12:22:58;;;;;;;23.42;12.88;;;;;;;;;;6233279;28;20060;-73
2022/11/28 12:26:07;;;;;;;26.05;14.63;;;;;;;;;;6240924;28;20470;-73
2022/11/28 12:29:20;;;;;;;20.10;10.80;;;;;;;;;;6245892;28;20021;-73
2022/11/28 12:32:26;;;;;;;21.63;11.80;;;;;;;;;;6245659;28;20025;-72
2022/11/28 12:35:45;;;;;;;22.77;11.13;;;;;;;;;;6239930;28;20037;-72
2022/11/28 12:38:57;;;;;;;20.15;11.93;;;;;;;;;;6242369;28;20087;-72
2022/11/28 12:42:09;;;;;;;16.65;10.80;;;;;;;;;;6239636;28;20076;-72
2022/11/28 12:45:28;;;;;;;20.63;11.60;;;;;;;;;;6240289;28;20397;-73
2022/11/28 12:48:40;;;;;;;22.00;11.35;;;;;;;;;;6239199;28;20390;-73
2022/11/28 12:51:56;;;;;;;20.48;10.13;;;;;;;;;;6237374;28;20029;-73
2022/11/28 12:55:03;;;;;;;23.10;10.68;;;;;;;;;;6238381;28;20418;-73
2022/11/28 12:58:08;;;;;;;15.32;9.05;;;;;;;;;;6241807;28;20025;-74
2022/11/28 13:01:30;;;;;;;20.88;9.77;;;;;;;;;;6238412;28;20095;-73
2022/11/28 13:04:36;;;;;;;21.25;11.05;;;;;;;;;;6239711;28;20018;-72
2022/11/28 13:08:02;;;;;;;16.02;8.77;;;;;;;;;;6232721;28;20029;-72
2022/11/28 13:11:25;;;;;;;21.10;10.07;;;;;;;;;;6239965;28;20489;-72
2022/11/28 13:14:44;;;;;;;16.40;9.52;;;;;;;;;;6239303;28;20037;-72
2022/11/28 13:17:53;;;;;;;20.65;10.70;;;;;;;;;;6241997;28;20400;-73
2022/11/28 13:21:12;;;;;;;18.55;11.05;;;;;;;;;;6239477;28;20029;-73
2022/11/28 13:24:22;;;;;;;23.58;11.68;;;;;;;;;;6241565;28;20044;-73
2022/11/28 13:27:31;;;;;;;20.23;9.40;;;;;;;;;;6241911;28;20469;-72
2022/11/28 13:30:34;;;;;;;18.40;11.10;;;;;;;;;;6241937;28;20493;-73
2022/11/28 13:33:44;;;;;;;18.85;9.95;;;;;;;;;;6245991;28;20029;-73
2022/11/28 13:36:44;;;;;;;23.83;11.13;;;;;;;;;;6237280;28;20022;-73
2022/11/28 13:39:48;;;;;;;22.98;10.93;;;;;;;;;;6238444;28;20072;-72
2022/11/28 13:42:57;;;;;;;20.67;10.32;;;;;;;;;;6243180;28;20019;-74
2022/11/28 13:45:58;;;;;;;16.70;9.93;;;;;;;;;;6241056;28;20014;-72
2022/11/28 13:48:59;;;;;;;20.13;9.80;;;;;;;;;;6244260;28;20063;-73
2022/11/28 13:52:28;;;;;;;18.00;9.23;;;;;;;;;;6243507;28;20044;-73
2022/11/28 13:55:45;;;;;;;17.48;9.88;;;;;;;;;;6235804;28;20080;-74
2022/11/28 13:58:52;;;;;;;22.42;9.63;;;;;;;;;;6233948;28;20029;-73
2022/11/28 14:01:57;;;;;;;20.55;9.80;;;;;;;;;;6236057;28;20437;-73
2022/11/28 14:04:57;;;;;;;17.58;10.65;;;;;;;;;;6238148;28;20060;-72
2022/11/28 14:07:58;;;;;;;20.93;9.57;;;;;;;;;;6239750;28;20025;-73
2022/11/28 14:10:58;;;;;;;19.42;10.02;;;;;;;;;;6231960;28;20029;-73
2022/11/28 14:14:17;;;;;;;16.80;9.13;;;;;;;;;;6241602;28;20457;-73
2022/11/28 14:17:20;;;;;;;16.00;8.27;;;;;;;;;;6238482;28;20101;-73
2022/11/28 14:20:27;;;;;;;15.15;7.38;;;;;;;;;;6237522;28;20071;-73
2022/11/28 14:23:44;;;;;;;14.00;6.97;;;;;;;;;;6243266;28;20048;-73
2022/11/28 14:26:45;;;;;;;15.65;8.10;;;;;;;;;;6243083;28;20044;-73
2022/11/28 14:29:47;;;;;;;12.80;7.53;;;;;;;;;;6242272;28;20018;-73
2022/11/28 14:32:53;;;;;;;18.63;8.60;;;;;;;;;;6241024;28;20025;-72
2022/11/28 14:35:57;;;;;;;16.27;8.80;;;;;;;;;;6258332;28;20227;-72
2022/11/28 14:39:06;;;;;;;15.75;7.63;;;;;;;;;;6244159;28;20029;-72
2022/11/28 14:42:08;;;;;;;17.92;8.35;;;;;;;;;;6241540;28;20029;-72
2022/11/28 14:45:27;;;;;;;18.45;9.13;;;;;;;;;;6241621;28;20037;-73
2022/11/28 14:48:28;;;;;;;22.60;11.38;;;;;;;;;;6246510;28;20062;-72
2022/11/28 14:51:47;;;;;;;28.77;12.20;;;;;;;;;;6245076;28;20032;-73
2022/11/28 14:54:48;;;;;;;26.25;14.35;;;;;;;;;;6245438;28;20497;-73
2022/11/28 14:57:51;;;;;;;32.67;17.77;;;;;;;;;;6247783;28;20029;-73
2022/11/28 15:00:54;;;;;;;37.95;18.63;;;;;;;;;;6245050;28;20877;-73
2022/11/28 15:04:12;;;;;;;38.03;17.95;;;;;;;;;;6239412;28;20017;-73
2022/11/28 15:07:21;;;;;;;33.92;18.38;;;;;;;;;;6247637;28;20032;-73
2022/11/28 15:10:24;;;;;;;40.63;19.17;;;;;;;;;;6246134;28;20047;-73
2022/11/28 15:13:34;;;;;;;45.53;21.25;;;;;;;;;;6248818;28;20032;-73
2022/11/28 15:16:37;;;;;;;43.90;21.58;;;;;;;;;;6248746;28;20028;-72
2022/11/28 15:19:45;;;;;;;46.63;23.98;;;;;;;;;;6245267;28;20425;-72
2022/11/28 15:22:45;;;;;;;41.97;20.15;;;;;;;;;;6244771;28;20100;-73
2022/11/28 15:25:50;;;;;;;41.70;21.80;;;;;;;;;;6239102;28;20017;-73
2022/11/28 15:29:07;;;;;;;51.58;28.75;;;;;;;;;;6242811;28;20032;-73
2022/11/28 15:32:12;;;;;;;52.33;35.85;;;;;;;;;;6222018;28;20486;-73
2022/11/28 15:35:20;;;;;;;53.33;29.25;;;;;;;;;;6243023;28;20025;-73
2022/11/28 15:38:20;;;;;;;52.63;28.50;;;;;;;;;;6230308;28;20027;-73
2022/11/28 15:41:21;;;;;;;57.33;32.70;;;;;;;;;;6244939;28;20033;-74
2022/11/28 15:44:22;;;;;;;51.22;31.15;;;;;;;;;;6245277;28;20045;-75
2022/11/28 15:47:22;;;;;;;54.27;31.33;;;;;;;;;;6245941;28;20092;-75
2022/11/28 15:50:24;;;;;;;56.93;29.23;;;;;;;;;;6246847;28;20025;-74
2022/11/28 15:53:24;;;;;;;65.68;35.53;;;;;;;;;;6244816;28;20025;-74
2022/11/28 15:56:25;;;;;;;61.80;32.03;;;;;;;;;;6246013;28;20032;-74
2022/11/28 15:59:25;;;;;;;60.97;33.63;;;;;;;;;;6237142;28;20044;-73
2022/11/28 16:02:28;;;;;;;63.10;34.93;;;;;;;;;;6245426;28;20091;-73
2022/11/28 16:05:29;;;;;;;78.60;45.10;;;;;;;;;;6239903;28;20017;-74
2022/11/28 16:08:34;;;;;;;68.53;36.23;;;;;;;;;;6236845;28;20022;-74
2022/11/28 16:11:34;;;;;;;83.22;46.85;;;;;;;;;;6240793;28;20021;-73
2022/11/28 16:14:41;;;;;;;63.83;33.47;;;;;;;;;;6235054;28;20091;-74
2022/11/28 16:17:41;;;;;;;68.20;40.15;;;;;;;;;;6242129;28;20421;-74
2022/11/28 16:20:42;;;;;;;76.07;43.60;;;;;;;;;;6242716;28;20060;-75
2022/11/28 16:23:42;;;;;;;72.97;40.13;;;;;;;;;;6243275;28;20010;-75
2022/11/28 16:26:51;;;;;;;70.15;42.38;;;;;;;;;;6242768;28;20013;-75
2022/11/28 16:29:52;;;;;;;86.18;48.22;;;;;;;;;;6243434;28;20072;-75
2022/11/28 16:32:54;;;;;;;78.43;42.22;;;;;;;;;;6243067;28;20456;-74
2022/11/28 16:36:06;;;;;;;89.15;48.72;;;;;;;;;;6243637;28;20032;-75
2022/11/28 16:39:09;;;;;;;74.65;40.70;;;;;;;;;;6242608;28;20525;-74
2022/11/28 16:42:16;;;;;;;70.60;38.10;;;;;;;;;;6237708;28;20029;-74
2022/11/28 16:45:19;;;;;;;86.03;43.75;;;;;;;;;;6237279;28;20397;-74
2022/11/28 16:48:20;;;;;;;78.72;43.58;;;;;;;;;;6242284;28;20485;-75
2022/11/28 16:51:20;;;;;;;69.33;35.63;;;;;;;;;;6244592;28;20078;-73
2022/11/28 16:54:22;;;;;;;69.13;35.13;;;;;;;;;;6242057;28;20026;-74
2022/11/28 16:57:23;;;;;;;63.33;35.28;;;;;;;;;;6242249;28;20044;-75
2022/11/28 17:00:23;;;;;;;64.87;33.07;;;;;;;;;;6247878;28;20084;-75
2022/11/28 17:03:39;;;;;;;62.05;35.47;;;;;;;;;;6245244;28;20389;-74
2022/11/28 17:06:39;;;;;;;67.00;33.30;;;;;;;;;;6239253;28;20033;-74
2022/11/28 17:09:40;;;;;;;62.75;34.10;;;;;;;;;;6236426;28;20056;-74
2022/11/28 17:12:40;;;;;;;61.33;33.30;;;;;;;;;;6235917;28;20037;-75
2022/11/28 17:15:41;;;;;;;64.80;32.27;;;;;;;;;;6241172;28;20024;-75
2022/11/28 17:18:41;;;;;;;66.07;34.35;;;;;;;;;;6240614;28;20466;-74
2022/11/28 17:21:46;;;;;;;60.23;32.37;;;;;;;;;;6241536;28;20029;-74
2022/11/28 17:24:47;;;;;;;56.47;31.23;;;;;;;;;;6240337;28;20037;-74
2022/11/28 17:27:47;;;;;;;64.50;33.27;;;;;;;;;;6238402;28;20029;-74
2022/11/28 17:30:47;;;;;;;63.40;36.63;;;;;;;;;;6244213;28;20499;-73
2022/11/28 17:33:47;;;;;;;68.30;33.80;;;;;;;;;;6240588;28;20087;-74
2022/11/28 17:36:48;;;;;;;63.57;33.63;;;;;;;;;;6242348;28;20009;-75
2022/11/28 17:40:35;;;;;;;62.77;27.83;;;;;;;;;;6241998;28;20389;-75
2022/11/28 17:43:19;;;;;;;62.85;32.17;;;;;;;;;;6238401;28;20450;-75
2022/11/28 17:46:20;;;;;;;67.30;35.85;;;;;;;;;;6239904;28;20036;-75
2022/11/28 17:49:21;;;;;;;62.97;32.50;;;;;;;;;;6240348;28;20021;-73
2022/11/28 17:52:26;;;;;;;74.30;36.67;;;;;;;;;;6233280;28;20021;-75
2022/11/28 17:55:26;;;;;;;70.93;36.17;;;;;;;;;;6235506;28;20057;-74